createdAt,value
2019-04-21T00:01:55.959Z,64.77
2019-04-21T00:04:38.116Z,89.63
2019-04-21T00:07:19.366Z,100.13
2019-04-21T00:09:58.219Z,96.13
2019-04-21T00:12:40.562Z,101.37
2019-04-21T00:14:56.829Z,41.23
2019-04-21T00:17:19.703Z,33.13
2019-04-21T00:19:59.424Z,30.80
2019-04-21T00:22:37.707Z,28.20
2019-04-21T00:25:16.306Z,31.03
2019-04-21T00:27:55.216Z,28.80
2019-04-21T00:30:30.017Z,26.83
2019-04-21T00:32:54.083Z,35.67
2019-04-21T00:35:19.577Z,35.97
2019-04-21T00:38:08.218Z,34.83
2019-04-21T00:40:50.500Z,36.97
2019-04-21T00:43:18.120Z,48.40
2019-04-21T00:45:43.484Z,60.03
2019-04-21T00:48:29.851Z,69.90
2019-04-21T00:51:16.225Z,65.77
2019-04-21T00:53:51.226Z,79.97
2019-04-21T00:56:36.595Z,79.50
2019-04-21T00:58:56.155Z,60.23
2019-04-21T01:01:26.817Z,40.83
2019-04-21T01:03:57.693Z,37.73
2019-04-21T01:06:35.229Z,34.50
2019-04-21T01:09:02.629Z,36.67
2019-04-21T01:11:37.660Z,39.43
2019-04-21T01:14:12.077Z,39.50
2019-04-21T01:16:45.910Z,34.20
2019-04-21T01:19:17.309Z,39.43
2019-04-21T01:21:31.251Z,37.33
2019-04-21T01:24:11.806Z,39.37
2019-04-21T01:26:47.084Z,38.00
2019-04-21T01:29:27.999Z,33.57
2019-04-21T01:32:13.281Z,36.73
2019-04-21T01:34:39.577Z,37.87
2019-04-21T01:37:04.613Z,38.77
2019-04-21T01:39:48.506Z,39.70
2019-04-21T01:42:18.351Z,38.47
2019-04-21T01:44:53.196Z,37.17
2019-04-21T01:47:26.230Z,30.80
2019-04-21T01:49:52.715Z,31.87
2019-04-21T01:52:43.862Z,32.40
2019-04-21T01:55:20.720Z,28.80
2019-04-21T01:57:49.330Z,30.00
2019-04-21T02:00:19.066Z,27.23
2019-04-21T02:03:18.733Z,25.80
2019-04-21T02:05:37.478Z,28.63
2019-04-21T02:08:05.106Z,21.63
2019-04-21T02:10:47.996Z,20.70
2019-04-21T02:13:11.828Z,24.70
2019-04-21T02:15:48.817Z,22.90
2019-04-21T02:18:24.792Z,27.93
2019-04-21T02:20:45.657Z,27.67
2019-04-21T02:23:39.469Z,24.20
2019-04-21T02:26:03.850Z,25.57
2019-04-21T02:28:50.032Z,24.17
2019-04-21T02:31:28.645Z,27.87
2019-04-21T02:34:04.536Z,29.17
2019-04-21T02:39:12.298Z,26.83
2019-04-21T02:41:45.630Z,36.30
2019-04-21T02:44:08.652Z,30.60
2019-04-21T02:49:22.823Z,33.43
2019-04-21T02:57:04.871Z,30.37
2019-04-21T02:59:33.963Z,32.13
2019-04-21T03:02:22.769Z,35.33
2019-04-21T03:04:57.283Z,28.60
2019-04-21T03:07:50.238Z,28.73
2019-04-21T03:09:59.116Z,28.13
2019-04-21T03:12:53.062Z,31.27
2019-04-21T03:15:18.170Z,32.90
2019-04-21T03:17:49.857Z,35.27
2019-04-21T03:20:23.706Z,33.83
2019-04-21T03:22:53.432Z,37.53
2019-04-21T03:28:11.149Z,40.80
2019-04-21T03:33:42.198Z,30.70
2019-04-21T03:40:41.239Z,24.37
2019-04-21T03:43:21.193Z,24.27
2019-04-21T03:45:51.454Z,21.40
2019-04-21T03:48:36.740Z,23.00
2019-04-21T03:51:07.750Z,25.27
2019-04-21T03:53:48.077Z,28.87
2019-04-21T03:56:44.501Z,27.47
2019-04-21T04:01:50.979Z,24.43
2019-04-21T04:04:24.487Z,27.53
2019-04-21T04:09:37.488Z,37.23
2019-04-21T04:11:50.469Z,31.90
2019-04-21T04:14:34.210Z,29.97
2019-04-21T04:17:06.108Z,28.50
2019-04-21T04:19:38.938Z,30.40
2019-04-21T04:27:35.249Z,27.63
2019-04-21T04:29:56.798Z,33.43
2019-04-21T04:32:23.168Z,36.27
2019-04-21T04:35:03.423Z,40.17
2019-04-21T04:37:32.186Z,37.90
2019-04-21T04:40:10.932Z,38.00
2019-04-21T04:42:55.928Z,34.73
2019-04-21T04:45:23.769Z,39.03
2019-04-21T04:47:50.768Z,44.13
2019-04-21T04:50:31.644Z,42.57
2019-04-21T04:53:01.229Z,39.37
2019-04-21T04:55:33.866Z,45.20
2019-04-21T05:03:11.711Z,50.00
2019-04-21T05:11:44.560Z,71.53
2019-04-21T05:14:06.273Z,56.00
2019-04-21T05:19:22.643Z,34.97
2019-04-21T05:21:39.419Z,28.53
2019-04-21T05:24:08.099Z,31.97
2019-04-21T05:26:39.244Z,23.10
2019-04-21T05:29:10.827Z,29.00
2019-04-21T05:31:58.393Z,24.17
2019-04-21T05:34:42.675Z,30.57
2019-04-21T05:37:01.392Z,27.57
2019-04-21T05:39:36.115Z,37.40
2019-04-21T05:42:00.789Z,35.63
2019-04-21T05:44:58.099Z,31.60
2019-04-21T05:49:56.101Z,30.57
2019-04-21T05:52:26.528Z,27.35
2019-04-21T05:55:12.690Z,26.47
2019-04-21T05:57:43.134Z,28.67
2019-04-21T06:00:15.645Z,29.63
2019-04-21T06:02:50.971Z,27.58
2019-04-21T06:05:34.907Z,24.77
2019-04-21T06:08:00.426Z,22.85
2019-04-21T06:10:36.123Z,25.57
2019-04-21T06:13:13.062Z,21.73
2019-04-21T06:15:44.596Z,24.87
2019-04-21T06:18:20.240Z,18.53
2019-04-21T06:20:51.152Z,17.10
2019-04-21T06:23:25.733Z,21.62
2019-04-21T06:26:08.506Z,21.15
2019-04-21T06:28:35.969Z,15.93
2019-04-21T06:31:30.282Z,19.57
2019-04-21T06:33:40.560Z,17.62
2019-04-21T06:39:01.865Z,13.45
2019-04-21T06:44:05.103Z,14.00
2019-04-21T06:51:38.986Z,14.40
2019-04-21T06:54:16.106Z,15.65
2019-04-21T06:59:19.208Z,17.42
2019-04-21T07:02:02.920Z,13.70
2019-04-21T07:07:00.477Z,12.45
2019-04-21T07:09:31.896Z,14.30
2019-04-21T07:12:06.089Z,15.43
2019-04-21T07:17:22.630Z,16.10
2019-04-21T07:22:24.516Z,12.82
2019-04-21T07:24:57.356Z,14.45
2019-04-21T07:27:30.172Z,17.42
2019-04-21T07:30:05.261Z,16.45
2019-04-21T07:32:33.676Z,15.23
2019-04-21T07:35:08.431Z,15.80
2019-04-21T07:37:46.183Z,17.50
2019-04-21T07:40:09.444Z,17.02
2019-04-21T07:42:46.280Z,14.87
2019-04-21T07:45:16.859Z,13.85
2019-04-21T07:48:08.347Z,12.78
2019-04-21T07:51:04.422Z,14.98
2019-04-21T07:53:48.255Z,16.02
2019-04-21T07:55:51.219Z,14.20
2019-04-21T07:58:51.040Z,15.72
2019-04-21T08:01:18.070Z,13.43
2019-04-21T08:03:57.022Z,12.65
2019-04-21T08:06:29.526Z,12.85
2019-04-21T08:08:52.883Z,14.53
2019-04-21T08:11:25.386Z,15.90
2019-04-21T08:14:00.573Z,14.20
2019-04-21T08:16:36.793Z,12.60
2019-04-21T08:19:13.161Z,12.43
2019-04-21T08:21:55.794Z,14.63
2019-04-21T08:24:14.499Z,13.22
2019-04-21T08:26:51.435Z,16.50
2019-04-21T08:29:38.033Z,17.65
2019-04-21T08:32:02.602Z,11.55
2019-04-21T08:34:36.849Z,9.95
2019-04-21T08:37:04.215Z,11.38
2019-04-21T08:39:53.549Z,12.82
2019-04-21T08:42:11.904Z,12.70
2019-04-21T08:44:47.785Z,13.20
2019-04-21T08:47:20.706Z,13.15
2019-04-21T08:49:57.223Z,13.20
2019-04-21T08:52:37.032Z,13.30
2019-04-21T08:55:03.737Z,10.18
2019-04-21T08:58:15.527Z,15.40
2019-04-21T09:00:56.259Z,14.45
2019-04-21T09:03:14.628Z,15.18
2019-04-21T09:05:42.590Z,13.75
2019-04-21T09:08:20.210Z,11.25
2019-04-21T09:10:56.009Z,14.73
2019-04-21T09:13:25.909Z,12.23
2019-04-21T09:15:59.449Z,13.88
2019-04-21T09:18:28.418Z,16.15
2019-04-21T09:21:10.991Z,15.28
2019-04-21T09:23:38.234Z,13.70
2019-04-21T09:26:14.030Z,14.38
2019-04-21T09:28:39.487Z,14.80
2019-04-21T09:31:06.352Z,15.03
2019-04-21T09:33:41.297Z,10.90
2019-04-21T09:36:14.324Z,13.90
2019-04-21T09:38:45.708Z,10.72
2019-04-21T09:41:20.856Z,25.77
2019-04-21T09:43:53.668Z,11.80
2019-04-21T09:46:23.723Z,12.63
2019-04-21T09:49:02.006Z,7.45
2019-04-21T09:51:30.453Z,11.33
2019-04-21T09:54:09.827Z,10.53
2019-04-21T09:56:44.876Z,11.05
2019-04-21T09:59:19.359Z,21.75
2019-04-21T10:01:56.013Z,9.83
2019-04-21T10:04:16.960Z,10.88
2019-04-21T10:06:49.709Z,8.40
2019-04-21T10:09:21.869Z,11.10
2019-04-21T10:11:54.843Z,12.20
2019-04-21T10:14:26.739Z,8.55
2019-04-21T10:16:59.980Z,8.85
2019-04-21T10:19:31.962Z,8.45
2019-04-21T10:22:05.784Z,23.38
2019-04-21T10:24:38.344Z,10.00
2019-04-21T10:27:12.231Z,22.73
2019-04-21T10:29:45.391Z,8.13
2019-04-21T10:32:21.068Z,8.65
2019-04-21T10:34:51.030Z,8.63
2019-04-21T10:37:34.581Z,7.80
2019-04-21T10:39:57.724Z,15.78
2019-04-21T10:42:29.553Z,7.22
2019-04-21T10:45:01.495Z,8.93
2019-04-21T10:47:34.517Z,8.38
2019-04-21T10:50:11.232Z,9.88
2019-04-21T10:53:02.906Z,10.18
2019-04-21T10:55:53.318Z,6.92
2019-04-21T10:58:10.825Z,8.68
2019-04-21T11:00:46.067Z,7.22
2019-04-21T11:03:36.912Z,6.12
2019-04-21T11:06:12.710Z,24.07
2019-04-21T11:08:48.887Z,9.08
2019-04-21T11:11:19.515Z,8.03
2019-04-21T11:13:52.530Z,10.10
2019-04-21T11:16:24.539Z,9.78
2019-04-21T11:18:57.802Z,35.98
2019-04-21T11:21:31.129Z,17.07
2019-04-21T11:24:03.950Z,11.73
2019-04-21T11:26:36.050Z,13.83
2019-04-21T11:29:08.004Z,13.93
2019-04-21T11:31:41.034Z,13.68
2019-04-21T11:34:13.510Z,10.30
2019-04-21T11:36:45.959Z,7.55
2019-04-21T11:39:35.300Z,9.23
2019-04-21T11:41:55.781Z,10.80
2019-04-21T11:44:28.916Z,11.57
2019-04-21T11:47:02.550Z,8.73
2019-04-21T11:49:34.828Z,8.78
2019-04-21T11:52:07.076Z,10.03
2019-04-21T11:54:38.802Z,8.28
2019-04-21T11:57:15.196Z,11.05
2019-04-21T11:59:44.167Z,7.20
2019-04-21T12:02:17.269Z,11.78
2019-04-21T12:04:51.626Z,7.95
2019-04-21T12:07:23.455Z,9.33
2019-04-21T12:09:55.521Z,11.10
2019-04-21T12:12:27.547Z,9.45
2019-04-21T12:14:59.928Z,11.85
2019-04-21T12:17:32.098Z,10.65
2019-04-21T12:20:06.467Z,9.50
2019-04-21T12:22:39.115Z,9.65
2019-04-21T12:25:13.854Z,9.43
2019-04-21T12:27:45.780Z,9.20
2019-04-21T12:30:19.758Z,10.98
2019-04-21T12:33:02.383Z,9.43
2019-04-21T12:35:35.599Z,35.58
2019-04-21T12:38:08.794Z,8.75
2019-04-21T12:40:40.754Z,11.70
2019-04-21T12:43:12.659Z,9.75
2019-04-21T12:45:44.621Z,8.00
2019-04-21T12:48:17.924Z,8.63
2019-04-21T12:50:49.954Z,10.30
2019-04-21T12:53:23.405Z,7.62
2019-04-21T12:55:55.815Z,9.50
2019-04-21T12:58:29.088Z,10.53
2019-04-21T13:01:01.040Z,12.23
2019-04-21T13:03:34.098Z,7.75
2019-04-21T13:06:07.490Z,9.18
2019-04-21T13:08:51.877Z,11.48
2019-04-21T13:11:13.211Z,10.38
2019-04-21T13:13:45.968Z,9.15
2019-04-21T13:16:19.143Z,11.20
2019-04-21T13:18:51.299Z,7.33
2019-04-21T13:21:24.270Z,10.03
2019-04-21T13:23:56.901Z,7.97
2019-04-21T13:26:37.345Z,13.22
2019-04-21T13:29:02.754Z,9.90
2019-04-21T13:31:36.149Z,7.95
2019-04-21T13:34:08.338Z,7.25
2019-04-21T13:36:41.447Z,8.53
2019-04-21T13:42:07.598Z,8.20
2019-04-21T13:44:30.957Z,10.50
2019-04-21T13:47:03.081Z,9.23
2019-04-21T13:49:35.154Z,9.03
2019-04-21T13:52:07.145Z,7.92
2019-04-21T13:54:39.868Z,8.78
2019-04-21T13:57:12.511Z,12.05
2019-04-21T13:59:44.537Z,7.40
2019-04-21T14:02:16.447Z,7.15
2019-04-21T14:04:49.645Z,5.15
2019-04-21T14:07:21.764Z,7.30
2019-04-21T14:09:59.656Z,8.00
2019-04-21T14:12:28.106Z,5.28
2019-04-21T14:15:00.144Z,7.30
2019-04-21T14:17:32.864Z,5.72
2019-04-21T14:20:07.266Z,6.22
2019-04-21T14:22:40.046Z,6.40
2019-04-21T14:25:12.151Z,6.12
2019-04-21T14:27:45.791Z,9.58
2019-04-21T14:30:18.684Z,4.33
2019-04-21T14:32:51.757Z,4.95
2019-04-21T14:35:25.181Z,5.37
2019-04-21T14:37:58.190Z,6.08
2019-04-21T14:40:33.288Z,5.03
2019-04-21T14:43:03.946Z,4.53
2019-04-21T14:45:40.799Z,5.15
2019-04-21T14:48:21.252Z,5.60
2019-04-21T14:51:00.468Z,4.58
2019-04-21T14:53:34.087Z,4.92
2019-04-21T14:56:07.172Z,4.80
2019-04-21T14:58:39.259Z,5.47
2019-04-21T15:01:11.284Z,4.03
2019-04-21T15:03:43.756Z,3.92
2019-04-21T15:06:15.773Z,3.92
2019-04-21T15:08:49.079Z,6.33
2019-04-21T15:11:22.166Z,3.30
2019-04-21T15:13:53.965Z,4.53
2019-04-21T15:16:26.890Z,3.75
2019-04-21T15:18:59.066Z,7.10
2019-04-21T15:21:31.324Z,5.03
2019-04-21T15:24:04.518Z,5.12
2019-04-21T15:26:37.966Z,10.53
2019-04-21T15:29:10.790Z,3.30
2019-04-21T15:31:44.741Z,4.58
2019-04-21T15:34:17.463Z,3.65
2019-04-21T15:36:50.329Z,8.68
2019-04-21T15:39:23.530Z,5.72
2019-04-21T15:41:56.690Z,4.58
2019-04-21T15:44:28.452Z,3.75
2019-04-21T15:47:00.243Z,4.15
2019-04-21T15:49:56.981Z,4.87
2019-04-21T15:52:23.054Z,3.67
2019-04-21T15:54:57.005Z,4.35
2019-04-21T15:57:42.716Z,4.08
2019-04-21T16:00:32.341Z,5.95
2019-04-21T16:03:04.582Z,4.72
2019-04-21T16:05:37.119Z,5.33
2019-04-21T16:08:10.137Z,4.10
2019-04-21T16:10:50.163Z,4.15
2019-04-21T16:13:16.105Z,3.37
2019-04-21T16:15:50.452Z,4.70
2019-04-21T16:18:22.606Z,3.92
2019-04-21T16:20:55.778Z,3.08
2019-04-21T16:23:28.658Z,3.45
2019-04-21T16:26:02.445Z,4.78
2019-04-21T16:28:35.179Z,3.67
2019-04-21T16:31:07.119Z,4.00
2019-04-21T16:33:38.971Z,4.12
2019-04-21T16:36:12.901Z,4.72
2019-04-21T16:38:44.510Z,3.58
2019-04-21T16:41:16.284Z,7.67
2019-04-21T16:43:49.256Z,5.08
2019-04-21T16:46:21.231Z,6.80
2019-04-21T16:48:53.783Z,7.75
2019-04-21T16:51:26.416Z,5.62
2019-04-21T16:54:00.140Z,6.60
2019-04-21T16:56:33.687Z,8.18
2019-04-21T16:59:08.548Z,5.47
2019-04-21T17:01:40.720Z,6.15
2019-04-21T17:04:12.824Z,5.35
2019-04-21T17:06:45.040Z,7.03
2019-04-21T17:09:17.071Z,7.28
2019-04-21T17:11:52.332Z,5.12
2019-04-21T17:14:37.088Z,7.55
2019-04-21T17:17:20.494Z,4.45
2019-04-21T17:19:37.916Z,7.15
2019-04-21T17:22:04.077Z,7.55
2019-04-21T17:24:35.973Z,7.70
2019-04-21T17:27:09.029Z,6.42
2019-04-21T17:29:41.068Z,8.13
2019-04-21T17:32:14.199Z,8.65
2019-04-21T17:34:47.642Z,6.00
2019-04-21T17:37:22.229Z,11.70
2019-04-21T17:39:54.510Z,8.05
2019-04-21T17:42:34.477Z,9.03
2019-04-21T17:45:01.301Z,16.50
2019-04-21T17:47:44.892Z,22.85
2019-04-21T17:50:11.737Z,23.75
2019-04-21T17:52:50.519Z,18.12
2019-04-21T17:55:28.281Z,33.23
2019-04-21T17:58:11.593Z,31.17
2019-04-21T18:03:40.399Z,82.88
2019-04-21T18:06:00.838Z,67.32
2019-04-21T18:08:37.102Z,62.62
2019-04-21T18:11:01.199Z,54.67
2019-04-21T18:13:26.598Z,49.25
2019-04-21T18:16:11.009Z,35.78
2019-04-21T18:18:32.920Z,25.85
2019-04-21T18:21:14.444Z,25.72
2019-04-21T18:23:57.414Z,27.73
2019-04-21T18:26:35.471Z,28.98
2019-04-21T18:28:57.715Z,19.20
2019-04-21T18:31:33.818Z,17.50
2019-04-21T18:34:26.144Z,21.15
2019-04-21T18:36:59.714Z,12.65
2019-04-21T18:39:49.556Z,24.45
2019-04-21T18:42:31.297Z,20.05
2019-04-21T18:45:34.089Z,17.40
2019-04-21T18:47:53.904Z,12.60
2019-04-21T18:50:41.776Z,15.45
2019-04-21T18:53:41.436Z,13.60
2019-04-21T18:56:04.896Z,19.75
2019-04-21T18:58:32.669Z,16.62
2019-04-21T19:01:11.754Z,21.40
2019-04-21T19:03:43.110Z,22.65
2019-04-21T19:06:18.825Z,30.20
2019-04-21T19:09:07.712Z,17.07
2019-04-21T19:11:32.860Z,16.85
2019-04-21T19:17:04.338Z,37.58
2019-04-21T19:22:04.624Z,34.60
2019-04-21T19:24:54.979Z,36.55
2019-04-21T19:27:15.660Z,40.78
2019-04-21T19:29:57.255Z,31.73
2019-04-21T19:32:21.483Z,38.60
2019-04-21T19:34:39.856Z,25.68
2019-04-21T19:37:13.425Z,21.73
2019-04-21T19:39:53.940Z,13.68
2019-04-21T19:42:25.512Z,8.63
2019-04-21T19:45:08.894Z,10.98
2019-04-21T19:47:44.960Z,15.32
2019-04-21T19:50:19.776Z,12.70
2019-04-21T19:52:41.088Z,11.88
2019-04-21T19:55:04.177Z,9.10
2019-04-21T19:57:36.718Z,7.72
2019-04-21T20:00:11.513Z,9.53
2019-04-21T20:02:44.748Z,7.75
2019-04-21T20:05:29.788Z,11.35
2019-04-21T20:08:08.327Z,7.47
2019-04-21T20:10:44.154Z,12.50
2019-04-21T20:13:26.129Z,9.05
2019-04-21T20:15:50.956Z,11.97
2019-04-21T20:18:18.544Z,10.03
2019-04-21T20:20:39.657Z,16.32
2019-04-21T20:23:16.991Z,11.88
2019-04-21T20:25:49.820Z,11.53
2019-04-21T20:28:34.498Z,9.03
2019-04-21T20:31:14.708Z,10.82
2019-04-21T20:33:59.248Z,13.18
2019-04-21T20:36:25.197Z,12.90
2019-04-21T20:38:47.081Z,8.70
2019-04-21T20:41:25.708Z,10.15
2019-04-21T20:44:02.217Z,13.13
2019-04-21T20:46:36.806Z,7.85
2019-04-21T20:49:04.204Z,17.52
2019-04-21T20:51:40.367Z,12.20
2019-04-21T20:54:16.008Z,6.72
2019-04-21T20:56:49.614Z,9.85
2019-04-21T20:59:19.511Z,6.45
2019-04-21T21:01:54.938Z,8.53
2019-04-21T21:04:21.834Z,8.83
2019-04-21T21:07:09.174Z,12.13
2019-04-21T21:09:33.777Z,11.08
2019-04-21T21:12:24.468Z,14.00
2019-04-21T21:14:40.766Z,21.93
2019-04-21T21:17:26.952Z,47.50
2019-04-21T21:19:55.132Z,32.75
2019-04-21T21:22:14.859Z,10.98
2019-04-21T21:24:55.771Z,11.15
2019-04-21T21:27:27.955Z,9.75
2019-04-21T21:30:00.669Z,23.60
2019-04-21T21:32:37.382Z,30.90
2019-04-21T21:35:13.740Z,34.70
2019-04-21T21:37:52.049Z,21.70
2019-04-21T21:40:22.191Z,13.25
2019-04-21T21:42:40.337Z,9.05
2019-04-21T21:45:15.968Z,9.55
2019-04-21T21:48:00.997Z,11.20
2019-04-21T21:50:26.146Z,9.13
2019-04-21T21:53:00.574Z,7.35
2019-04-21T21:55:25.603Z,16.97
2019-04-21T21:58:01.930Z,7.67
2019-04-21T22:00:37.023Z,9.48
2019-04-21T22:03:17.850Z,8.38
2019-04-21T22:05:48.370Z,9.60
2019-04-21T22:08:16.353Z,7.70
2019-04-21T22:10:49.390Z,7.08
2019-04-21T22:13:27.029Z,11.18
2019-04-21T22:15:59.866Z,10.30
2019-04-21T22:18:43.120Z,11.48
2019-04-21T22:21:15.958Z,11.35
2019-04-21T22:23:43.848Z,9.40
2019-04-21T22:26:09.574Z,7.97
2019-04-21T22:28:41.522Z,10.63
2019-04-21T22:31:20.721Z,7.50
2019-04-21T22:33:51.281Z,10.93
2019-04-21T22:36:34.282Z,6.58
2019-04-21T22:39:13.056Z,8.15
2019-04-21T22:41:35.753Z,11.78
2019-04-21T22:44:02.487Z,10.25
2019-04-21T22:46:36.047Z,10.68
2019-04-21T22:49:10.696Z,6.37
2019-04-21T22:51:46.472Z,7.50
2019-04-21T22:54:20.823Z,8.83
2019-04-21T22:56:57.120Z,10.25
2019-04-21T22:59:24.352Z,8.98
2019-04-21T23:01:55.823Z,10.32
2019-04-21T23:04:36.833Z,7.58
2019-04-21T23:07:10.094Z,10.85
2019-04-21T23:09:37.267Z,9.43
2019-04-21T23:12:12.453Z,8.55
2019-04-21T23:14:52.215Z,9.15
2019-04-21T23:17:32.364Z,11.18
2019-04-21T23:20:10.506Z,10.63
2019-04-21T23:22:56.272Z,9.55
2019-04-21T23:25:18.162Z,11.00
2019-04-21T23:27:46.996Z,10.18
2019-04-21T23:30:33.805Z,11.97
2019-04-21T23:32:50.426Z,13.50
2019-04-21T23:35:25.391Z,9.60
2019-04-21T23:37:52.950Z,10.40
2019-04-21T23:40:25.450Z,10.25
2019-04-21T23:43:00.144Z,12.80
2019-04-21T23:45:33.999Z,17.27
2019-04-21T23:48:18.539Z,12.73
2019-04-21T23:50:45.916Z,16.27
2019-04-21T23:53:11.075Z,15.15
2019-04-21T23:55:43.412Z,11.53
2019-04-21T23:58:22.216Z,12.65
